createdAt,value
2019-03-24T00:00:50.273Z,0
2019-03-24T00:01:50.975Z,0
2019-03-24T00:02:51.648Z,0
2019-03-24T00:03:52.321Z,0
2019-03-24T00:04:52.995Z,0
2019-03-24T00:05:53.670Z,0
2019-03-24T00:06:54.344Z,0
2019-03-24T00:07:56.785Z,0
2019-03-24T00:08:55.735Z,0
2019-03-24T00:09:56.408Z,0
2019-03-24T00:10:57.081Z,0
2019-03-24T00:11:57.755Z,0
2019-03-24T00:12:58.431Z,0
2019-03-24T00:13:59.106Z,0
2019-03-24T00:14:59.778Z,0
2019-03-24T00:16:00.453Z,0
2019-03-24T00:17:01.127Z,0
2019-03-24T00:18:01.801Z,0
2019-03-24T00:19:02.474Z,0
2019-03-24T00:20:03.148Z,0
2019-03-24T00:21:03.823Z,0
2019-03-24T00:22:04.495Z,0
2019-03-24T00:23:05.168Z,0
2019-03-24T00:24:05.842Z,0
2019-03-24T00:25:06.540Z,0
2019-03-24T00:26:07.190Z,0
2019-03-24T00:27:07.871Z,0
2019-03-24T00:28:08.587Z,0
2019-03-24T00:29:09.261Z,0
2019-03-24T00:30:09.934Z,0
2019-03-24T00:31:10.606Z,0
2019-03-24T00:32:11.280Z,0
2019-03-24T00:33:11.954Z,0
2019-03-24T00:34:12.628Z,0
2019-03-24T00:35:13.303Z,0
2019-03-24T00:36:13.976Z,0
2019-03-24T00:37:14.650Z,0
2019-03-24T00:38:15.324Z,0
2019-03-24T00:39:15.998Z,0
2019-03-24T00:40:16.675Z,0
2019-03-24T00:41:17.345Z,0
2019-03-24T00:42:18.018Z,0
2019-03-24T00:43:18.692Z,0
2019-03-24T00:44:19.366Z,0
2019-03-24T00:45:20.040Z,0
2019-03-24T00:46:20.712Z,0
2019-03-24T00:47:21.386Z,0
2019-03-24T00:48:22.059Z,0
2019-03-24T00:49:22.734Z,0
2019-03-24T00:50:23.409Z,0
2019-03-24T00:51:24.081Z,0
2019-03-24T00:52:24.763Z,0
2019-03-24T00:53:25.480Z,0
2019-03-24T00:54:26.156Z,0
2019-03-24T00:55:26.878Z,0
2019-03-24T00:56:27.571Z,0
2019-03-24T00:57:28.225Z,0
2019-03-24T00:58:28.902Z,0
2019-03-24T00:59:29.636Z,0
2019-03-24T01:00:30.265Z,0
2019-03-24T01:01:30.940Z,0
2019-03-24T01:02:31.614Z,0
2019-03-24T01:03:32.329Z,0
2019-03-24T01:04:32.961Z,0
2019-03-24T01:05:33.633Z,0
2019-03-24T01:06:34.354Z,0
2019-03-24T01:07:35.027Z,0
2019-03-24T01:08:35.700Z,0
2019-03-24T01:09:36.376Z,0
2019-03-24T01:10:37.049Z,0
2019-03-24T01:11:37.723Z,0
2019-03-24T01:12:38.396Z,0
2019-03-24T01:13:39.070Z,0
2019-03-24T01:14:39.743Z,0
2019-03-24T01:15:47.749Z,0
2019-03-24T01:16:42.082Z,0
2019-03-24T01:17:42.755Z,0
2019-03-24T01:18:43.431Z,0
2019-03-24T01:19:44.105Z,0
2019-03-24T01:20:44.783Z,0
2019-03-24T01:21:45.454Z,0
2019-03-24T01:22:46.127Z,0
2019-03-24T01:23:46.802Z,0
2019-03-24T01:24:47.475Z,0
2019-03-24T01:25:48.150Z,0
2019-03-24T01:26:48.825Z,0
2019-03-24T01:27:49.498Z,0
2019-03-24T01:28:50.172Z,0
2019-03-24T01:29:50.845Z,0
2019-03-24T01:30:51.520Z,0
2019-03-24T01:31:52.192Z,0
2019-03-24T01:32:52.890Z,0
2019-03-24T01:33:53.540Z,0
2019-03-24T01:34:54.214Z,0
2019-03-24T01:35:54.888Z,0
2019-03-24T01:36:55.563Z,0
2019-03-24T01:37:56.237Z,0
2019-03-24T01:38:56.914Z,0
2019-03-24T01:39:57.585Z,0
2019-03-24T01:40:58.260Z,0
2019-03-24T01:41:58.931Z,0
2019-03-24T01:42:59.608Z,0
2019-03-24T01:44:00.282Z,0
2019-03-24T01:45:00.948Z,0
2019-03-24T01:46:01.622Z,0
2019-03-24T01:47:02.304Z,0
2019-03-24T01:48:02.974Z,0
2019-03-24T01:49:03.644Z,0
2019-03-24T01:50:04.318Z,0
2019-03-24T01:51:04.989Z,0
2019-03-24T01:52:05.667Z,0
2019-03-24T01:53:06.339Z,0
2019-03-24T01:54:07.012Z,0
2019-03-24T01:55:07.687Z,0
2019-03-24T01:56:08.360Z,0
2019-03-24T01:57:09.034Z,0
2019-03-24T01:58:09.708Z,0
2019-03-24T01:59:10.385Z,0
2019-03-24T02:00:11.058Z,0
2019-03-24T02:01:11.730Z,0
2019-03-24T02:02:12.404Z,0
2019-03-24T02:03:13.079Z,0
2019-03-24T02:04:13.753Z,0
2019-03-24T02:05:14.428Z,0
2019-03-24T02:06:15.103Z,0
2019-03-24T02:07:15.774Z,0
2019-03-24T02:08:16.448Z,0
2019-03-24T02:09:17.122Z,0
2019-03-24T02:10:17.798Z,0
2019-03-24T02:11:18.471Z,0
2019-03-24T02:12:19.144Z,0
2019-03-24T02:13:19.819Z,0
2019-03-24T02:14:20.494Z,0
2019-03-24T02:15:21.170Z,0
2019-03-24T02:16:21.848Z,0
2019-03-24T02:17:22.564Z,0
2019-03-24T02:18:23.234Z,0
2019-03-24T02:19:23.908Z,0
2019-03-24T02:20:24.583Z,0
2019-03-24T02:21:25.258Z,0
2019-03-24T02:22:25.979Z,0
2019-03-24T02:23:26.691Z,0
2019-03-24T02:24:27.326Z,0
2019-03-24T02:25:28.001Z,0
2019-03-24T02:26:28.673Z,0
2019-03-24T02:27:29.348Z,0
2019-03-24T02:28:30.022Z,0
2019-03-24T02:29:30.696Z,0
2019-03-24T02:30:31.420Z,0
2019-03-24T02:31:32.099Z,0
2019-03-24T02:32:32.816Z,0
2019-03-24T02:33:33.490Z,0
2019-03-24T02:34:34.165Z,0
2019-03-24T02:35:34.865Z,0
2019-03-24T02:36:35.540Z,0
2019-03-24T02:37:36.209Z,0
2019-03-24T02:38:36.884Z,0
2019-03-24T02:39:37.557Z,0
2019-03-24T02:40:38.230Z,0
2019-03-24T02:41:38.903Z,0
2019-03-24T02:42:39.580Z,0
2019-03-24T02:43:40.252Z,0
2019-03-24T02:44:40.965Z,0
2019-03-24T02:45:41.593Z,0
2019-03-24T02:46:42.268Z,0
2019-03-24T02:47:42.949Z,0
2019-03-24T02:48:43.613Z,0
2019-03-24T02:49:44.294Z,0
2019-03-24T02:50:44.963Z,0
2019-03-24T02:51:45.697Z,0
2019-03-24T02:52:46.357Z,0
2019-03-24T02:53:47.033Z,0
2019-03-24T02:54:47.704Z,0
2019-03-24T02:55:48.377Z,0
2019-03-24T02:56:49.106Z,0
2019-03-24T02:57:49.784Z,0
2019-03-24T02:58:50.448Z,0
2019-03-24T02:59:51.126Z,0
2019-03-24T03:00:51.797Z,0
2019-03-24T03:01:52.480Z,0
2019-03-24T03:02:53.143Z,0
2019-03-24T03:03:53.819Z,0
2019-03-24T03:04:54.495Z,0
2019-03-24T03:05:55.169Z,0
2019-03-24T03:06:55.890Z,0
2019-03-24T03:07:56.563Z,0
2019-03-24T03:08:57.237Z,0
2019-03-24T03:09:57.911Z,0
2019-03-24T03:10:58.582Z,0
2019-03-24T03:11:59.256Z,0
2019-03-24T03:12:59.929Z,0
2019-03-24T03:14:00.608Z,0
2019-03-24T03:15:01.278Z,0
2019-03-24T03:16:01.952Z,0
2019-03-24T03:17:02.631Z,0
2019-03-24T03:18:03.301Z,0
2019-03-24T03:19:03.989Z,0
2019-03-24T03:20:04.698Z,0
2019-03-24T03:21:05.373Z,0
2019-03-24T03:22:06.048Z,0
2019-03-24T03:23:06.719Z,0
2019-03-24T03:24:07.399Z,0
2019-03-24T03:25:08.070Z,0
2019-03-24T03:26:08.789Z,0
2019-03-24T03:27:09.485Z,0
2019-03-24T03:28:10.137Z,0
2019-03-24T03:29:10.819Z,0
2019-03-24T03:30:11.532Z,0
2019-03-24T03:31:12.206Z,0
2019-03-24T03:32:12.880Z,0
2019-03-24T03:33:13.568Z,0
2019-03-24T03:34:14.278Z,0
2019-03-24T03:35:14.955Z,0
2019-03-24T03:36:15.638Z,0
2019-03-24T03:37:16.297Z,0
2019-03-24T03:38:16.971Z,0
2019-03-24T03:39:17.640Z,0
2019-03-24T03:40:18.314Z,0
2019-03-24T03:41:19.007Z,0
2019-03-24T03:42:19.658Z,0
2019-03-24T03:43:20.343Z,0
2019-03-24T03:44:21.057Z,0
2019-03-24T03:45:21.771Z,0
2019-03-24T03:46:22.443Z,0
2019-03-24T03:47:23.117Z,0
2019-03-24T03:48:23.791Z,0
2019-03-24T03:49:24.467Z,0
2019-03-24T03:50:25.137Z,0
2019-03-24T03:51:25.813Z,0
2019-03-24T03:52:26.490Z,0
2019-03-24T03:53:27.162Z,0
2019-03-24T03:54:27.867Z,0
2019-03-24T03:55:28.514Z,0
2019-03-24T03:56:29.187Z,0
2019-03-24T03:57:29.860Z,0
2019-03-24T03:58:30.535Z,0
2019-03-24T03:59:31.256Z,0
2019-03-24T04:00:31.928Z,0
2019-03-24T04:01:32.603Z,0
2019-03-24T04:02:33.276Z,0
2019-03-24T04:03:33.949Z,0
2019-03-24T04:04:34.624Z,0
2019-03-24T04:05:35.342Z,0
2019-03-24T04:06:36.018Z,0
2019-03-24T04:07:36.692Z,0
2019-03-24T04:08:37.362Z,0
2019-03-24T04:09:38.036Z,0
2019-03-24T04:10:38.709Z,0
2019-03-24T04:11:39.382Z,0
2019-03-24T04:12:40.066Z,0
2019-03-24T04:13:40.730Z,0
2019-03-24T04:14:41.403Z,0
2019-03-24T04:15:42.123Z,0
2019-03-24T04:16:42.796Z,0
2019-03-24T04:17:43.471Z,0
2019-03-24T04:18:44.143Z,0
2019-03-24T04:19:44.817Z,0
2019-03-24T04:20:45.491Z,0
2019-03-24T04:21:46.162Z,0
2019-03-24T04:22:46.839Z,0
2019-03-24T04:23:47.516Z,0
2019-03-24T04:24:48.231Z,0
2019-03-24T04:25:48.902Z,0
2019-03-24T04:26:49.577Z,0
2019-03-24T04:27:50.254Z,0
2019-03-24T04:28:50.926Z,0
2019-03-24T04:29:51.598Z,0
2019-03-24T04:30:52.272Z,0
2019-03-24T04:31:52.941Z,0
2019-03-24T04:32:53.660Z,0
2019-03-24T04:33:54.339Z,0
2019-03-24T04:34:55.010Z,0
2019-03-24T04:35:55.676Z,0
2019-03-24T04:36:56.348Z,0
2019-03-24T04:37:57.020Z,0
2019-03-24T04:38:57.694Z,0
2019-03-24T04:39:58.364Z,0
2019-03-24T04:40:59.035Z,0
2019-03-24T04:41:59.723Z,0
2019-03-24T04:43:00.378Z,0
2019-03-24T04:44:01.052Z,0
2019-03-24T04:45:01.725Z,0
2019-03-24T04:46:02.402Z,0
2019-03-24T04:47:03.072Z,0
2019-03-24T04:48:03.747Z,0
2019-03-24T04:49:04.414Z,0
2019-03-24T04:50:05.095Z,0
2019-03-24T04:51:05.762Z,0
2019-03-24T04:52:06.435Z,4
2019-03-24T04:53:07.108Z,4
2019-03-24T04:54:07.781Z,0
2019-03-24T04:55:08.457Z,0
2019-03-24T04:56:09.127Z,4
2019-03-24T04:57:09.827Z,4
2019-03-24T04:58:10.473Z,8
2019-03-24T04:59:11.146Z,4
2019-03-24T05:00:11.818Z,8
2019-03-24T05:01:12.491Z,8
2019-03-24T05:02:13.168Z,8
2019-03-24T05:03:13.837Z,12
2019-03-24T05:04:14.517Z,16
2019-03-24T05:05:15.186Z,16
2019-03-24T05:06:15.860Z,16
2019-03-24T05:07:16.534Z,20
2019-03-24T05:08:17.208Z,28
2019-03-24T05:09:17.882Z,28
2019-03-24T05:10:18.556Z,32
2019-03-24T05:11:19.232Z,36
2019-03-24T05:12:19.903Z,36
2019-03-24T05:13:20.577Z,44
2019-03-24T05:14:21.249Z,48
2019-03-24T05:15:21.925Z,52
2019-03-24T05:16:22.596Z,60
2019-03-24T05:17:27.276Z,64
2019-03-24T05:18:24.936Z,68
2019-03-24T05:19:25.599Z,72
2019-03-24T05:20:26.273Z,76
2019-03-24T05:21:26.951Z,76
2019-03-24T05:22:27.623Z,80
2019-03-24T05:23:28.296Z,84
2019-03-24T05:24:28.969Z,88
2019-03-24T05:25:29.644Z,96
2019-03-24T05:26:30.316Z,100
2019-03-24T05:27:30.991Z,116
2019-03-24T05:28:31.714Z,124
2019-03-24T05:29:32.391Z,124
2019-03-24T05:30:33.114Z,124
2019-03-24T05:31:33.789Z,124
2019-03-24T05:32:34.464Z,132
2019-03-24T05:33:35.138Z,144
2019-03-24T05:34:35.815Z,152
2019-03-24T05:35:36.489Z,168
2019-03-24T05:36:37.163Z,180
2019-03-24T05:37:37.841Z,200
2019-03-24T05:38:38.562Z,220
2019-03-24T05:39:39.235Z,240
2019-03-24T05:40:39.910Z,252
2019-03-24T05:41:40.587Z,260
2019-03-24T05:42:41.261Z,268
2019-03-24T05:43:41.937Z,296
2019-03-24T05:44:42.617Z,332
2019-03-24T05:45:43.288Z,360
2019-03-24T05:46:43.967Z,388
2019-03-24T05:47:44.640Z,404
2019-03-24T05:48:45.314Z,420
2019-03-24T05:49:46.001Z,416
2019-03-24T05:50:46.714Z,412
2019-03-24T05:51:47.389Z,432
2019-03-24T05:52:48.069Z,452
2019-03-24T05:53:48.789Z,448
2019-03-24T05:54:49.466Z,448
2019-03-24T05:55:50.141Z,460
2019-03-24T05:56:50.815Z,476
2019-03-24T05:57:51.493Z,484
2019-03-24T05:58:52.167Z,508
2019-03-24T05:59:52.842Z,532
2019-03-24T06:00:53.519Z,556
2019-03-24T06:01:54.193Z,568
2019-03-24T06:02:54.867Z,588
2019-03-24T06:03:55.546Z,604
2019-03-24T06:04:56.221Z,616
2019-03-24T06:05:56.897Z,620
2019-03-24T06:06:57.621Z,624
2019-03-24T06:07:58.298Z,644
2019-03-24T06:08:58.974Z,660
2019-03-24T06:09:59.651Z,672
2019-03-24T06:11:00.327Z,680
2019-03-24T06:12:01.004Z,684
2019-03-24T06:13:01.679Z,684
2019-03-24T06:14:02.355Z,680
2019-03-24T06:15:03.030Z,680
2019-03-24T06:16:03.706Z,692
2019-03-24T06:17:04.382Z,716
2019-03-24T06:18:05.058Z,752
2019-03-24T06:19:05.734Z,788
2019-03-24T06:20:06.410Z,836
2019-03-24T06:21:07.084Z,880
2019-03-24T06:22:07.761Z,924
2019-03-24T06:23:08.438Z,956
2019-03-24T06:24:09.117Z,968
2019-03-24T06:25:09.791Z,956
2019-03-24T06:26:10.515Z,948
2019-03-24T06:27:11.239Z,944
2019-03-24T06:28:11.917Z,960
2019-03-24T06:29:12.639Z,984
2019-03-24T06:30:13.318Z,988
2019-03-24T06:31:13.990Z,980
2019-03-24T06:32:14.667Z,960
2019-03-24T06:33:15.346Z,952
2019-03-24T06:34:16.021Z,960
2019-03-24T06:35:16.699Z,964
2019-03-24T06:36:17.376Z,976
2019-03-24T06:37:18.052Z,1000
2019-03-24T06:38:18.730Z,1036
2019-03-24T06:39:19.438Z,1068
2019-03-24T06:40:20.136Z,1084
2019-03-24T06:41:20.812Z,1096
2019-03-24T06:42:21.489Z,1140
2019-03-24T06:43:22.167Z,1184
2019-03-24T06:44:22.850Z,1236
2019-03-24T06:45:28.330Z,1268
2019-03-24T06:46:25.190Z,1312
2019-03-24T06:47:25.870Z,1376
2019-03-24T06:48:26.546Z,1432
2019-03-24T06:49:27.220Z,1452
2019-03-24T06:50:27.899Z,1436
2019-03-24T06:51:28.577Z,1408
2019-03-24T06:52:29.300Z,1388
2019-03-24T06:53:29.976Z,1376
2019-03-24T06:54:30.653Z,1372
2019-03-24T06:55:31.349Z,1400
2019-03-24T06:56:32.056Z,1464
2019-03-24T06:57:32.733Z,1560
2019-03-24T06:58:33.413Z,1640
2019-03-24T06:59:34.138Z,1692
2019-03-24T07:00:34.815Z,1708
2019-03-24T07:01:35.494Z,1696
2019-03-24T07:02:36.219Z,1668
2019-03-24T07:03:36.899Z,1652
2019-03-24T07:04:37.575Z,1668
2019-03-24T07:05:38.252Z,1700
2019-03-24T07:06:38.931Z,1724
2019-03-24T07:07:39.607Z,1752
2019-03-24T07:08:40.284Z,1776
2019-03-24T07:09:40.961Z,1784
2019-03-24T07:10:41.639Z,1800
2019-03-24T07:11:42.387Z,1840
2019-03-24T07:12:43.081Z,1908
2019-03-24T07:13:43.717Z,1992
2019-03-24T07:14:44.392Z,2080
2019-03-24T07:15:45.068Z,2180
2019-03-24T07:16:45.748Z,2276
2019-03-24T07:17:46.474Z,2344
2019-03-24T07:18:47.154Z,2376
2019-03-24T07:19:47.880Z,2384
2019-03-24T07:20:48.558Z,2408
2019-03-24T07:21:49.236Z,2464
2019-03-24T07:22:49.912Z,2564
2019-03-24T07:23:50.597Z,2632
2019-03-24T07:24:51.266Z,2672
2019-03-24T07:25:51.944Z,2744
2019-03-24T07:26:52.625Z,2824
2019-03-24T07:27:53.306Z,2860
2019-03-24T07:28:53.983Z,2884
2019-03-24T07:29:54.662Z,2876
2019-03-24T07:30:55.341Z,2840
2019-03-24T07:31:56.019Z,2776
2019-03-24T07:32:56.698Z,2672
2019-03-24T07:33:57.376Z,2612
2019-03-24T07:34:58.053Z,2616
2019-03-24T07:35:58.778Z,2624
2019-03-24T07:36:59.459Z,2652
2019-03-24T07:38:00.138Z,2720
2019-03-24T07:39:00.817Z,2836
2019-03-24T07:40:01.496Z,2996
2019-03-24T07:41:02.173Z,3172
2019-03-24T07:42:02.855Z,3348
2019-03-24T07:43:03.540Z,3476
2019-03-24T07:44:04.213Z,3608
2019-03-24T07:45:04.892Z,3740
2019-03-24T07:46:05.571Z,3808
2019-03-24T07:47:06.251Z,3816
2019-03-24T07:48:06.933Z,3808
2019-03-24T07:49:07.612Z,3872
2019-03-24T07:50:08.291Z,3900
2019-03-24T07:51:08.972Z,3868
2019-03-24T07:52:09.651Z,3804
2019-03-24T07:53:11.181Z,3728
2019-03-24T07:54:11.883Z,3732
2019-03-24T07:55:12.557Z,3688
2019-03-24T07:56:13.242Z,3564
2019-03-24T07:57:13.919Z,3452
2019-03-24T07:58:14.598Z,3376
2019-03-24T07:59:15.278Z,3268
2019-03-24T08:00:15.957Z,3172
2019-03-24T08:01:16.638Z,3148
2019-03-24T08:02:17.318Z,3284
2019-03-24T08:03:17.999Z,3556
2019-03-24T08:04:18.727Z,3768
2019-03-24T08:05:19.409Z,3868
2019-03-24T08:06:20.088Z,3936
2019-03-24T08:07:20.769Z,3988
2019-03-24T08:08:21.452Z,3960
2019-03-24T08:09:22.128Z,3840
2019-03-24T08:10:22.807Z,3676
2019-03-24T08:11:23.486Z,3620
2019-03-24T08:12:24.166Z,3640
2019-03-24T08:13:24.847Z,3680
2019-03-24T08:14:25.529Z,3652
2019-03-24T08:15:26.208Z,3604
2019-03-24T08:16:26.890Z,3576
2019-03-24T08:17:27.568Z,3592
2019-03-24T08:18:30.163Z,3620
2019-03-24T08:19:29.018Z,3704
2019-03-24T08:20:29.700Z,3736
2019-03-24T08:21:30.381Z,3724
2019-03-24T08:22:31.062Z,3712
2019-03-24T08:23:31.741Z,3680
2019-03-24T08:24:32.421Z,3548
2019-03-24T08:25:33.103Z,3392
2019-03-24T08:26:33.785Z,3248
2019-03-24T08:27:34.511Z,3144
2019-03-24T08:28:35.192Z,3140
2019-03-24T08:29:35.872Z,3252
2019-03-24T08:30:36.548Z,3424
2019-03-24T08:31:37.229Z,3536
2019-03-24T08:32:37.910Z,3668
2019-03-24T08:33:38.591Z,3772
2019-03-24T08:34:39.270Z,3792
2019-03-24T08:35:39.957Z,3828
2019-03-24T08:36:40.634Z,3896
2019-03-24T08:37:41.314Z,3988
2019-03-24T08:38:41.994Z,4076
2019-03-24T08:39:42.673Z,4016
2019-03-24T08:40:43.355Z,3872
2019-03-24T08:41:44.035Z,3696
2019-03-24T08:42:44.717Z,3544
2019-03-24T08:43:45.399Z,3504
2019-03-24T08:44:46.077Z,3548
2019-03-24T08:45:46.757Z,3544
2019-03-24T08:46:47.467Z,3524
2019-03-24T08:47:48.168Z,3548
2019-03-24T08:48:48.847Z,3604
2019-03-24T08:49:49.554Z,3624
2019-03-24T08:50:50.259Z,3640
2019-03-24T08:51:51.322Z,3680
2019-03-24T08:52:51.977Z,3704
2019-03-24T08:53:52.659Z,3764
2019-03-24T08:54:53.340Z,3816
2019-03-24T08:55:54.022Z,3816
2019-03-24T08:56:54.704Z,3780
2019-03-24T08:57:55.384Z,3784
2019-03-24T08:58:56.062Z,3808
2019-03-24T08:59:56.742Z,3756
2019-03-24T09:00:57.424Z,3600
2019-03-24T09:01:58.105Z,3464
2019-03-24T09:02:58.784Z,3356
2019-03-24T09:03:59.470Z,3224
2019-03-24T09:05:00.330Z,3084
2019-03-24T09:06:00.964Z,2996
2019-03-24T09:07:01.644Z,2992
2019-03-24T09:08:02.354Z,3032
2019-03-24T09:09:03.057Z,3020
2019-03-24T09:10:03.740Z,2940
2019-03-24T09:11:04.420Z,2872
2019-03-24T09:12:05.099Z,2872
2019-03-24T09:13:05.779Z,2876
2019-03-24T09:14:06.460Z,2848
2019-03-24T09:15:07.141Z,2812
2019-03-24T09:16:07.818Z,2792
2019-03-24T09:17:08.496Z,2772
2019-03-24T09:18:09.175Z,2752
2019-03-24T09:19:09.862Z,2780
2019-03-24T09:20:10.537Z,2860
2019-03-24T09:21:11.218Z,3000
2019-03-24T09:22:11.904Z,3200
2019-03-24T09:23:12.625Z,3376
2019-03-24T09:24:13.303Z,3480
2019-03-24T09:25:13.986Z,3568
2019-03-24T09:26:14.667Z,3696
2019-03-24T09:27:15.348Z,3796
2019-03-24T09:28:16.029Z,3856
2019-03-24T09:29:16.708Z,3828
2019-03-24T09:30:17.390Z,3760
2019-03-24T09:31:18.070Z,3660
2019-03-24T09:32:18.798Z,3568
2019-03-24T09:33:19.478Z,3556
2019-03-24T09:34:20.160Z,3640
2019-03-24T09:35:20.840Z,3756
2019-03-24T09:36:21.519Z,3872
2019-03-24T09:37:22.200Z,4032
2019-03-24T09:38:22.928Z,4200
2019-03-24T09:39:23.611Z,4348
2019-03-24T09:40:24.291Z,4496
2019-03-24T09:41:24.996Z,4560
2019-03-24T09:42:25.653Z,4524
2019-03-24T09:43:26.337Z,4504
2019-03-24T09:44:27.015Z,4568
2019-03-24T09:45:27.726Z,4756
2019-03-24T09:46:28.422Z,5048
2019-03-24T09:47:29.103Z,5152
2019-03-24T09:48:29.784Z,5008
2019-03-24T09:49:30.466Z,4736
2019-03-24T09:50:31.144Z,4596
2019-03-24T09:51:31.827Z,4696
2019-03-24T09:52:32.504Z,4880
2019-03-24T09:53:33.187Z,5040
2019-03-24T09:54:33.869Z,5104
2019-03-24T09:55:34.547Z,5048
2019-03-24T09:56:35.229Z,4956
2019-03-24T09:57:35.909Z,4836
2019-03-24T09:58:36.592Z,4760
2019-03-24T09:59:37.271Z,4720
2019-03-24T10:00:37.951Z,4748
2019-03-24T10:01:38.631Z,4828
2019-03-24T10:02:39.312Z,4876
2019-03-24T10:03:39.995Z,4920
2019-03-24T10:04:40.675Z,4940
2019-03-24T10:05:41.357Z,4956
2019-03-24T10:06:42.037Z,4988
2019-03-24T10:07:42.717Z,4936
2019-03-24T10:08:47.320Z,4872
2019-03-24T10:09:45.070Z,4944
2019-03-24T10:10:45.753Z,5024
2019-03-24T10:11:46.434Z,5028
2019-03-24T10:12:47.115Z,4964
2019-03-24T10:13:47.795Z,4892
2019-03-24T10:14:48.474Z,4920
2019-03-24T10:15:49.158Z,5032
2019-03-24T10:16:49.840Z,5080
2019-03-24T10:17:50.520Z,5048
2019-03-24T10:18:51.199Z,5060
2019-03-24T10:19:51.879Z,5128
2019-03-24T10:20:52.562Z,5236
2019-03-24T10:21:53.244Z,5412
2019-03-24T10:22:53.926Z,5540
2019-03-24T10:23:54.607Z,5660
2019-03-24T10:24:55.287Z,5868
2019-03-24T10:25:55.970Z,6140
2019-03-24T10:26:56.700Z,6376
2019-03-24T10:27:57.338Z,6552
2019-03-24T10:28:58.019Z,6752
2019-03-24T10:29:58.698Z,6924
2019-03-24T10:30:59.381Z,7088
2019-03-24T10:32:00.060Z,7276
2019-03-24T10:33:00.743Z,7428
2019-03-24T10:34:01.426Z,7496
2019-03-24T10:35:02.106Z,7656
2019-03-24T10:36:02.836Z,7784
2019-03-24T10:37:03.529Z,7480
2019-03-24T10:38:04.210Z,7080
2019-03-24T10:39:04.891Z,6780
2019-03-24T10:40:05.574Z,6508
2019-03-24T10:41:06.254Z,6388
2019-03-24T10:42:06.936Z,6508
2019-03-24T10:43:07.620Z,6724
2019-03-24T10:44:08.300Z,6916
2019-03-24T10:45:08.981Z,6860
2019-03-24T10:46:09.711Z,6668
2019-03-24T10:47:10.393Z,6644
2019-03-24T10:48:11.074Z,6764
2019-03-24T10:49:11.758Z,6884
2019-03-24T10:50:14.327Z,7004
2019-03-24T10:51:13.164Z,7300
2019-03-24T10:52:13.846Z,7656
2019-03-24T10:53:14.527Z,7704
2019-03-24T10:54:15.209Z,7488
2019-03-24T10:55:15.891Z,7408
2019-03-24T10:56:16.574Z,7384
2019-03-24T10:57:17.257Z,6868
2019-03-24T10:58:17.938Z,6588
2019-03-24T10:59:18.621Z,6508
2019-03-24T11:00:19.323Z,6420
2019-03-24T11:01:19.986Z,6300
2019-03-24T11:02:20.671Z,6172
2019-03-24T11:03:21.353Z,6152
2019-03-24T11:04:22.036Z,6196
2019-03-24T11:05:22.714Z,6172
2019-03-24T11:06:23.404Z,6108
2019-03-24T11:07:24.078Z,6040
2019-03-24T11:08:24.759Z,5968
2019-03-24T11:09:25.443Z,5836
2019-03-24T11:10:26.126Z,5612
2019-03-24T11:11:26.808Z,5400
2019-03-24T11:12:27.488Z,5224
2019-03-24T11:13:28.180Z,5028
2019-03-24T11:14:28.862Z,4784
2019-03-24T11:15:29.592Z,4584
2019-03-24T11:16:30.274Z,4460
2019-03-24T11:17:30.957Z,4388
2019-03-24T11:18:31.641Z,4388
2019-03-24T11:19:35.871Z,4452
2019-03-24T11:20:34.045Z,4564
2019-03-24T11:21:34.726Z,4692
2019-03-24T11:22:35.410Z,4808
2019-03-24T11:23:36.141Z,5044
2019-03-24T11:24:36.825Z,5404
2019-03-24T11:25:37.507Z,5884
2019-03-24T11:26:38.188Z,6384
2019-03-24T11:27:38.870Z,6840
2019-03-24T11:28:39.550Z,7228
2019-03-24T11:29:40.233Z,7432
2019-03-24T11:30:40.914Z,7432
2019-03-24T11:31:41.596Z,7116
2019-03-24T11:32:42.279Z,6508
2019-03-24T11:33:43.010Z,5772
2019-03-24T11:34:43.690Z,5116
2019-03-24T11:35:44.373Z,4664
2019-03-24T11:36:45.058Z,4380
2019-03-24T11:37:45.737Z,4140
2019-03-24T11:38:46.418Z,3972
2019-03-24T11:39:47.100Z,3880
2019-03-24T11:40:47.782Z,3856
2019-03-24T11:41:48.468Z,3888
2019-03-24T11:42:49.147Z,3924
2019-03-24T11:43:49.829Z,4004
2019-03-24T11:44:50.510Z,4120
2019-03-24T11:45:51.191Z,4220
2019-03-24T11:46:51.875Z,4368
2019-03-24T11:47:52.556Z,4592
2019-03-24T11:48:53.244Z,4808
2019-03-24T11:49:53.921Z,4948
2019-03-24T11:50:54.601Z,5044
2019-03-24T11:51:55.333Z,5056
2019-03-24T11:52:56.014Z,4888
2019-03-24T11:53:56.746Z,4648
2019-03-24T11:54:57.475Z,4444
2019-03-24T11:55:58.161Z,4268
2019-03-24T11:56:58.842Z,4120
2019-03-24T11:58:05.798Z,4000
2019-03-24T11:59:01.197Z,3932
2019-03-24T12:00:01.888Z,3888
2019-03-24T12:01:02.610Z,3840
2019-03-24T12:02:03.294Z,3756
2019-03-24T12:03:03.978Z,3692
2019-03-24T12:04:04.657Z,3616
2019-03-24T12:05:05.338Z,3512
2019-03-24T12:06:13.844Z,3348
2019-03-24T12:07:07.691Z,3144
2019-03-24T12:08:08.373Z,2972
2019-03-24T12:09:09.055Z,2868
2019-03-24T12:10:09.735Z,2856
2019-03-24T12:11:10.417Z,2924
2019-03-24T12:12:11.096Z,3060
2019-03-24T12:13:11.777Z,3248
2019-03-24T12:14:12.457Z,3344
2019-03-24T12:15:13.188Z,3248
2019-03-24T12:16:13.871Z,3048
2019-03-24T12:17:14.558Z,2880
2019-03-24T12:18:15.237Z,2764
2019-03-24T12:19:15.915Z,2712
2019-03-24T12:20:16.599Z,2716
2019-03-24T12:21:17.276Z,2776
2019-03-24T12:22:17.956Z,2900
2019-03-24T12:23:20.934Z,3056
2019-03-24T12:24:20.309Z,3148
2019-03-24T12:25:20.989Z,3116
2019-03-24T12:26:21.673Z,3044
2019-03-24T12:27:22.350Z,2988
2019-03-24T12:28:23.040Z,2980
2019-03-24T12:29:23.762Z,3064
2019-03-24T12:30:24.443Z,3244
2019-03-24T12:31:25.124Z,3468
2019-03-24T12:32:25.849Z,3748
2019-03-24T12:33:26.522Z,4064
2019-03-24T12:34:27.179Z,4364
2019-03-24T12:35:27.907Z,4540
2019-03-24T12:36:28.586Z,4548
2019-03-24T12:37:29.268Z,4500
2019-03-24T12:38:29.949Z,4500
2019-03-24T12:39:30.628Z,4560
2019-03-24T12:40:31.308Z,4628
2019-03-24T12:41:31.988Z,4604
2019-03-24T12:42:32.671Z,4444
2019-03-24T12:43:33.353Z,4224
2019-03-24T12:44:34.033Z,4004
2019-03-24T12:45:34.764Z,3820
2019-03-24T12:46:35.444Z,3676
2019-03-24T12:47:36.127Z,3564
2019-03-24T12:48:36.804Z,3516
2019-03-24T12:49:37.487Z,3536
2019-03-24T12:50:38.168Z,3576
2019-03-24T12:51:38.847Z,3636
2019-03-24T12:52:39.529Z,3688
2019-03-24T12:53:40.211Z,3664
2019-03-24T12:54:40.891Z,3552
2019-03-24T12:55:41.574Z,3400
2019-03-24T12:56:42.254Z,3188
2019-03-24T12:57:44.174Z,2916
2019-03-24T12:58:44.605Z,2684
2019-03-24T12:59:45.284Z,2516
2019-03-24T13:00:45.967Z,2380
2019-03-24T13:01:46.644Z,2244
2019-03-24T13:02:47.324Z,2112
2019-03-24T13:03:48.005Z,1984
2019-03-24T13:04:48.684Z,1832
2019-03-24T13:05:49.364Z,1704
2019-03-24T13:06:50.042Z,1636
2019-03-24T13:07:50.728Z,1644
2019-03-24T13:08:51.402Z,1724
2019-03-24T13:09:52.084Z,1848
2019-03-24T13:10:52.764Z,1968
2019-03-24T13:11:53.444Z,2052
2019-03-24T13:12:54.123Z,2084
2019-03-24T13:13:54.807Z,2088
2019-03-24T13:14:55.485Z,2056
2019-03-24T13:15:56.219Z,2024
2019-03-24T13:16:56.865Z,2052
2019-03-24T13:17:57.541Z,2156
2019-03-24T13:18:58.219Z,2224
2019-03-24T13:19:58.945Z,2148
2019-03-24T13:20:59.626Z,2048
2019-03-24T13:22:00.309Z,2076
2019-03-24T13:23:00.986Z,2208
2019-03-24T13:24:01.662Z,2352
2019-03-24T13:25:02.341Z,2432
2019-03-24T13:26:03.022Z,2424
2019-03-24T13:27:03.707Z,2404
2019-03-24T13:28:04.429Z,2448
2019-03-24T13:29:05.109Z,2580
2019-03-24T13:30:05.787Z,2740
2019-03-24T13:31:06.471Z,2844
2019-03-24T13:32:07.151Z,2840
2019-03-24T13:33:07.832Z,2780
2019-03-24T13:34:08.512Z,2720
2019-03-24T13:35:09.190Z,2672
2019-03-24T13:36:09.871Z,2600
2019-03-24T13:37:10.554Z,2456
2019-03-24T13:38:11.229Z,2256
2019-03-24T13:39:11.956Z,2068
2019-03-24T13:40:12.635Z,1944
2019-03-24T13:41:13.311Z,1880
2019-03-24T13:42:13.990Z,1876
2019-03-24T13:43:14.674Z,1924
2019-03-24T13:44:15.351Z,2008
2019-03-24T13:45:16.073Z,2124
2019-03-24T13:46:16.751Z,2228
2019-03-24T13:47:17.432Z,2268
2019-03-24T13:48:18.111Z,2276
2019-03-24T13:49:18.789Z,2332
2019-03-24T13:50:30.546Z,2380
2019-03-24T13:51:21.139Z,2320
2019-03-24T13:52:21.819Z,2156
2019-03-24T13:53:22.499Z,1916
2019-03-24T13:54:23.176Z,1688
2019-03-24T13:55:23.854Z,1532
2019-03-24T13:56:24.533Z,1484
2019-03-24T13:57:25.213Z,1520
2019-03-24T13:58:25.893Z,1584
2019-03-24T13:59:26.570Z,1628
2019-03-24T14:00:27.250Z,1620
2019-03-24T14:01:27.929Z,1564
2019-03-24T14:02:28.611Z,1496